sensor_id;sensor_type;location;lat;lon;timestamp;temperature;humidity
37460;DHT22;23318;50.966;5.284;2024-02-26T00:01:52;7.80;99.90
37460;DHT22;23318;50.966;5.284;2024-02-26T00:04:18;7.80;99.90
37460;DHT22;23318;50.966;5.284;2024-02-26T00:06:43;7.70;99.90
37460;DHT22;23318;50.966;5.284;2024-02-26T00:09:10;7.70;99.90
37460;DHT22;23318;50.966;5.284;2024-02-26T00:11:36;7.70;99.90
37460;DHT22;23318;50.966;5.284;2024-02-26T00:14:03;7.60;99.90
37460;DHT22;23318;50.966;5.284;2024-02-26T00:16:29;7.60;99.90
37460;DHT22;23318;50.966;5.284;2024-02-26T00:18:54;7.60;99.90
37460;DHT22;23318;50.966;5.284;2024-02-26T00:21:20;7.60;99.90
37460;DHT22;23318;50.966;5.284;2024-02-26T00:23:46;7.60;99.90
37460;DHT22;23318;50.966;5.284;2024-02-26T00:26:11;7.50;99.90
37460;DHT22;23318;50.966;5.284;2024-02-26T00:28:37;7.50;99.90
37460;DHT22;23318;50.966;5.284;2024-02-26T00:31:03;7.60;99.90
37460;DHT22;23318;50.966;5.284;2024-02-26T00:33:29;7.50;99.90
37460;DHT22;23318;50.966;5.284;2024-02-26T00:35:54;7.60;99.90
37460;DHT22;23318;50.966;5.284;2024-02-26T00:38:20;7.50;99.90
37460;DHT22;23318;50.966;5.284;2024-02-26T00:40:46;7.50;99.90
37460;DHT22;23318;50.966;5.284;2024-02-26T00:43:11;7.50;99.90
37460;DHT22;23318;50.966;5.284;2024-02-26T00:45:37;7.60;99.90
37460;DHT22;23318;50.966;5.284;2024-02-26T00:48:03;7.50;99.90
37460;DHT22;23318;50.966;5.284;2024-02-26T00:50:31;7.40;99.90
37460;DHT22;23318;50.966;5.284;2024-02-26T00:52:57;7.20;99.90
37460;DHT22;23318;50.966;5.284;2024-02-26T00:55:23;7.20;99.90
37460;DHT22;23318;50.966;5.284;2024-02-26T00:57:48;7.30;99.90
37460;DHT22;23318;50.966;5.284;2024-02-26T01:00:14;7.30;99.90
37460;DHT22;23318;50.966;5.284;2024-02-26T01:02:40;7.20;99.90
37460;DHT22;23318;50.966;5.284;2024-02-26T01:05:08;7.20;99.90
37460;DHT22;23318;50.966;5.284;2024-02-26T01:07:35;7.20;99.90
37460;DHT22;23318;50.966;5.284;2024-02-26T01:10:04;7.30;99.90
37460;DHT22;23318;50.966;5.284;2024-02-26T01:12:33;7.20;99.90
37460;DHT22;23318;50.966;5.284;2024-02-26T01:15:00;7.20;99.90
37460;DHT22;23318;50.966;5.284;2024-02-26T01:17:26;7.00;99.90
37460;DHT22;23318;50.966;5.284;2024-02-26T01:19:51;7.20;99.90
37460;DHT22;23318;50.966;5.284;2024-02-26T01:22:18;7.20;99.90
37460;DHT22;23318;50.966;5.284;2024-02-26T01:24:44;7.20;99.90
37460;DHT22;23318;50.966;5.284;2024-02-26T01:27:10;7.20;99.90
37460;DHT22;23318;50.966;5.284;2024-02-26T01:29:35;7.20;99.90
37460;DHT22;23318;50.966;5.284;2024-02-26T01:32:01;7.20;99.90
37460;DHT22;23318;50.966;5.284;2024-02-26T01:34:27;7.20;99.90
37460;DHT22;23318;50.966;5.284;2024-02-26T01:36:52;7.20;99.90
37460;DHT22;23318;50.966;5.284;2024-02-26T01:39:18;7.20;99.90
37460;DHT22;23318;50.966;5.284;2024-02-26T01:41:44;7.10;99.90
37460;DHT22;23318;50.966;5.284;2024-02-26T01:44:12;7.20;99.90
37460;DHT22;23318;50.966;5.284;2024-02-26T01:46:38;7.20;99.90
37460;DHT22;23318;50.966;5.284;2024-02-26T01:49:04;7.20;99.90
37460;DHT22;23318;50.966;5.284;2024-02-26T01:51:32;7.20;99.90
37460;DHT22;23318;50.966;5.284;2024-02-26T01:53:59;7.20;99.90
37460;DHT22;23318;50.966;5.284;2024-02-26T01:56:27;7.20;99.90
37460;DHT22;23318;50.966;5.284;2024-02-26T01:58:56;7.10;99.90
37460;DHT22;23318;50.966;5.284;2024-02-26T02:01:25;7.00;99.90
37460;DHT22;23318;50.966;5.284;2024-02-26T02:03:51;7.10;99.90
37460;DHT22;23318;50.966;5.284;2024-02-26T02:06:17;7.10;99.90
37460;DHT22;23318;50.966;5.284;2024-02-26T02:08:43;7.00;99.90
37460;DHT22;23318;50.966;5.284;2024-02-26T02:11:09;7.00;99.90
37460;DHT22;23318;50.966;5.284;2024-02-26T02:13:37;7.10;99.90
37460;DHT22;23318;50.966;5.284;2024-02-26T02:16:03;7.10;99.90
37460;DHT22;23318;50.966;5.284;2024-02-26T02:18:29;7.10;99.90
37460;DHT22;23318;50.966;5.284;2024-02-26T02:20:55;7.10;99.90
37460;DHT22;23318;50.966;5.284;2024-02-26T02:23:22;7.10;99.90
37460;DHT22;23318;50.966;5.284;2024-02-26T02:25:48;7.00;99.90
37460;DHT22;23318;50.966;5.284;2024-02-26T02:28:13;7.10;99.90
37460;DHT22;23318;50.966;5.284;2024-02-26T02:30:40;7.00;99.90
37460;DHT22;23318;50.966;5.284;2024-02-26T02:33:05;7.10;99.90
37460;DHT22;23318;50.966;5.284;2024-02-26T02:35:31;7.00;99.90
37460;DHT22;23318;50.966;5.284;2024-02-26T02:37:57;7.00;99.90
37460;DHT22;23318;50.966;5.284;2024-02-26T02:40:23;6.90;99.90
37460;DHT22;23318;50.966;5.284;2024-02-26T02:42:49;6.90;99.90
37460;DHT22;23318;50.966;5.284;2024-02-26T02:45:15;6.90;99.90
37460;DHT22;23318;50.966;5.284;2024-02-26T02:47:40;6.90;99.90
37460;DHT22;23318;50.966;5.284;2024-02-26T02:50:06;7.00;99.90
37460;DHT22;23318;50.966;5.284;2024-02-26T02:52:32;6.90;99.90
37460;DHT22;23318;50.966;5.284;2024-02-26T02:54:58;7.00;99.90
37460;DHT22;23318;50.966;5.284;2024-02-26T02:57:24;7.00;99.90
37460;DHT22;23318;50.966;5.284;2024-02-26T02:59:49;6.90;99.90
37460;DHT22;23318;50.966;5.284;2024-02-26T03:02:15;6.80;99.90
37460;DHT22;23318;50.966;5.284;2024-02-26T03:04:41;6.80;99.90
37460;DHT22;23318;50.966;5.284;2024-02-26T03:07:06;6.70;99.90
37460;DHT22;23318;50.966;5.284;2024-02-26T03:09:32;6.80;99.90
37460;DHT22;23318;50.966;5.284;2024-02-26T03:11:57;6.70;99.90
37460;DHT22;23318;50.966;5.284;2024-02-26T03:14:23;6.80;99.90
37460;DHT22;23318;50.966;5.284;2024-02-26T03:16:49;6.80;99.90
37460;DHT22;23318;50.966;5.284;2024-02-26T03:19:15;6.80;99.90
37460;DHT22;23318;50.966;5.284;2024-02-26T03:21:43;6.80;99.90
37460;DHT22;23318;50.966;5.284;2024-02-26T03:24:09;6.70;99.90
37460;DHT22;23318;50.966;5.284;2024-02-26T03:26:36;6.70;99.90
37460;DHT22;23318;50.966;5.284;2024-02-26T03:29:02;6.70;99.90
37460;DHT22;23318;50.966;5.284;2024-02-26T03:31:28;6.80;99.90
37460;DHT22;23318;50.966;5.284;2024-02-26T03:33:54;6.70;99.90
37460;DHT22;23318;50.966;5.284;2024-02-26T03:36:20;6.70;99.90
37460;DHT22;23318;50.966;5.284;2024-02-26T03:38:47;6.70;99.90
37460;DHT22;23318;50.966;5.284;2024-02-26T03:41:13;6.70;99.90
37460;DHT22;23318;50.966;5.284;2024-02-26T03:43:39;6.70;99.90
37460;DHT22;23318;50.966;5.284;2024-02-26T03:46:08;6.60;99.90
37460;DHT22;23318;50.966;5.284;2024-02-26T03:48:35;6.50;99.90
37460;DHT22;23318;50.966;5.284;2024-02-26T03:51:00;6.60;99.90
37460;DHT22;23318;50.966;5.284;2024-02-26T03:53:26;6.60;99.90
37460;DHT22;23318;50.966;5.284;2024-02-26T03:55:51;6.70;99.90
37460;DHT22;23318;50.966;5.284;2024-02-26T03:58:18;6.70;99.90
37460;DHT22;23318;50.966;5.284;2024-02-26T04:00:43;6.70;99.90
37460;DHT22;23318;50.966;5.284;2024-02-26T04:03:10;6.70;99.90
37460;DHT22;23318;50.966;5.284;2024-02-26T04:05:35;6.70;99.90
37460;DHT22;23318;50.966;5.284;2024-02-26T04:08:01;6.80;99.90
37460;DHT22;23318;50.966;5.284;2024-02-26T04:10:29;6.90;99.90
37460;DHT22;23318;50.966;5.284;2024-02-26T04:12:54;6.80;99.90
37460;DHT22;23318;50.966;5.284;2024-02-26T04:15:20;6.90;99.90
37460;DHT22;23318;50.966;5.284;2024-02-26T04:17:45;6.80;99.90
37460;DHT22;23318;50.966;5.284;2024-02-26T04:20:14;6.70;99.90
37460;DHT22;23318;50.966;5.284;2024-02-26T04:22:41;6.70;99.90
37460;DHT22;23318;50.966;5.284;2024-02-26T04:25:07;6.70;99.90
37460;DHT22;23318;50.966;5.284;2024-02-26T04:27:33;6.60;99.90
37460;DHT22;23318;50.966;5.284;2024-02-26T04:29:58;6.60;99.90
37460;DHT22;23318;50.966;5.284;2024-02-26T04:32:24;6.60;99.90
37460;DHT22;23318;50.966;5.284;2024-02-26T04:34:50;6.60;99.90
37460;DHT22;23318;50.966;5.284;2024-02-26T04:37:15;6.60;99.90
37460;DHT22;23318;50.966;5.284;2024-02-26T04:39:41;6.70;99.90
37460;DHT22;23318;50.966;5.284;2024-02-26T04:42:06;6.70;99.90
37460;DHT22;23318;50.966;5.284;2024-02-26T04:44:32;6.70;99.90
37460;DHT22;23318;50.966;5.284;2024-02-26T04:46:58;6.70;99.90
37460;DHT22;23318;50.966;5.284;2024-02-26T04:49:24;6.70;99.90
37460;DHT22;23318;50.966;5.284;2024-02-26T04:51:49;6.70;99.90
37460;DHT22;23318;50.966;5.284;2024-02-26T04:54:15;6.60;99.90
37460;DHT22;23318;50.966;5.284;2024-02-26T04:56:42;6.70;99.90
37460;DHT22;23318;50.966;5.284;2024-02-26T04:59:08;6.70;99.90
37460;DHT22;23318;50.966;5.284;2024-02-26T05:01:33;6.60;99.90
37460;DHT22;23318;50.966;5.284;2024-02-26T05:03:59;6.60;99.90
37460;DHT22;23318;50.966;5.284;2024-02-26T05:06:25;6.70;99.90
37460;DHT22;23318;50.966;5.284;2024-02-26T05:08:50;6.70;99.90
37460;DHT22;23318;50.966;5.284;2024-02-26T05:11:16;6.70;99.90
37460;DHT22;23318;50.966;5.284;2024-02-26T05:13:43;6.70;99.90
37460;DHT22;23318;50.966;5.284;2024-02-26T05:16:10;6.80;99.90
37460;DHT22;23318;50.966;5.284;2024-02-26T05:18:36;6.70;99.90
37460;DHT22;23318;50.966;5.284;2024-02-26T05:21:02;6.60;99.90
37460;DHT22;23318;50.966;5.284;2024-02-26T05:23:30;6.70;99.90
37460;DHT22;23318;50.966;5.284;2024-02-26T05:25:56;6.60;99.90
37460;DHT22;23318;50.966;5.284;2024-02-26T05:28:22;6.50;99.90
37460;DHT22;23318;50.966;5.284;2024-02-26T05:30:47;6.60;99.90
37460;DHT22;23318;50.966;5.284;2024-02-26T05:33:13;6.70;99.90
37460;DHT22;23318;50.966;5.284;2024-02-26T05:35:39;6.50;99.90
37460;DHT22;23318;50.966;5.284;2024-02-26T05:38:05;6.50;99.90
37460;DHT22;23318;50.966;5.284;2024-02-26T05:40:31;6.60;99.90
37460;DHT22;23318;50.966;5.284;2024-02-26T05:42:57;6.50;99.90
37460;DHT22;23318;50.966;5.284;2024-02-26T05:45:22;6.60;99.90
37460;DHT22;23318;50.966;5.284;2024-02-26T05:47:48;6.60;99.90
37460;DHT22;23318;50.966;5.284;2024-02-26T05:50:15;6.60;99.90
37460;DHT22;23318;50.966;5.284;2024-02-26T05:52:41;6.60;99.90
37460;DHT22;23318;50.966;5.284;2024-02-26T05:55:07;6.60;99.90
37460;DHT22;23318;50.966;5.284;2024-02-26T05:57:34;6.60;99.90
37460;DHT22;23318;50.966;5.284;2024-02-26T06:00:00;6.60;99.90
37460;DHT22;23318;50.966;5.284;2024-02-26T06:02:30;6.60;99.90
37460;DHT22;23318;50.966;5.284;2024-02-26T06:04:56;6.60;99.90
37460;DHT22;23318;50.966;5.284;2024-02-26T06:07:21;6.50;99.90
37460;DHT22;23318;50.966;5.284;2024-02-26T06:09:47;6.50;99.90
37460;DHT22;23318;50.966;5.284;2024-02-26T06:12:13;6.50;99.90
37460;DHT22;23318;50.966;5.284;2024-02-26T06:14:39;6.40;99.90
37460;DHT22;23318;50.966;5.284;2024-02-26T06:17:05;6.40;99.90
37460;DHT22;23318;50.966;5.284;2024-02-26T06:19:31;6.50;99.90
37460;DHT22;23318;50.966;5.284;2024-02-26T06:21:56;6.50;99.90
37460;DHT22;23318;50.966;5.284;2024-02-26T06:24:22;6.40;99.90
37460;DHT22;23318;50.966;5.284;2024-02-26T06:26:48;6.40;99.90
37460;DHT22;23318;50.966;5.284;2024-02-26T06:29:14;6.50;99.90
37460;DHT22;23318;50.966;5.284;2024-02-26T06:31:39;6.50;99.90
37460;DHT22;23318;50.966;5.284;2024-02-26T06:34:05;6.40;99.90
37460;DHT22;23318;50.966;5.284;2024-02-26T06:36:31;6.50;99.90
37460;DHT22;23318;50.966;5.284;2024-02-26T06:38:57;6.50;99.90
37460;DHT22;23318;50.966;5.284;2024-02-26T06:41:23;6.50;99.90
37460;DHT22;23318;50.966;5.284;2024-02-26T06:43:56;6.50;99.90
37460;DHT22;23318;50.966;5.284;2024-02-26T06:46:22;6.40;99.90
37460;DHT22;23318;50.966;5.284;2024-02-26T06:48:48;6.60;99.90
37460;DHT22;23318;50.966;5.284;2024-02-26T06:51:14;6.60;99.90
37460;DHT22;23318;50.966;5.284;2024-02-26T06:53:40;6.50;99.90
37460;DHT22;23318;50.966;5.284;2024-02-26T06:56:06;6.40;99.90
37460;DHT22;23318;50.966;5.284;2024-02-26T06:58:31;6.30;99.90
37460;DHT22;23318;50.966;5.284;2024-02-26T07:00:58;6.40;99.90
37460;DHT22;23318;50.966;5.284;2024-02-26T07:03:23;6.40;99.90
37460;DHT22;23318;50.966;5.284;2024-02-26T07:05:51;6.40;99.90
37460;DHT22;23318;50.966;5.284;2024-02-26T07:08:17;6.40;99.90
37460;DHT22;23318;50.966;5.284;2024-02-26T07:10:43;6.40;99.90
37460;DHT22;23318;50.966;5.284;2024-02-26T07:13:09;6.40;99.90
37460;DHT22;23318;50.966;5.284;2024-02-26T07:15:34;6.40;99.90
37460;DHT22;23318;50.966;5.284;2024-02-26T07:18:00;6.50;99.90
37460;DHT22;23318;50.966;5.284;2024-02-26T07:20:29;6.50;99.90
37460;DHT22;23318;50.966;5.284;2024-02-26T07:22:55;6.40;99.90
37460;DHT22;23318;50.966;5.284;2024-02-26T07:25:21;6.50;99.90
37460;DHT22;23318;50.966;5.284;2024-02-26T07:27:47;6.50;99.90
37460;DHT22;23318;50.966;5.284;2024-02-26T07:30:13;6.60;99.90
37460;DHT22;23318;50.966;5.284;2024-02-26T07:32:39;6.70;99.90
37460;DHT22;23318;50.966;5.284;2024-02-26T07:35:05;6.60;99.90
37460;DHT22;23318;50.966;5.284;2024-02-26T07:37:30;6.50;99.90
37460;DHT22;23318;50.966;5.284;2024-02-26T07:39:56;6.40;99.90
37460;DHT22;23318;50.966;5.284;2024-02-26T07:42:22;6.40;99.90
37460;DHT22;23318;50.966;5.284;2024-02-26T07:44:47;6.40;99.90
37460;DHT22;23318;50.966;5.284;2024-02-26T07:47:13;6.30;99.90
37460;DHT22;23318;50.966;5.284;2024-02-26T07:49:40;6.40;99.90
37460;DHT22;23318;50.966;5.284;2024-02-26T07:52:06;6.50;99.90
37460;DHT22;23318;50.966;5.284;2024-02-26T07:54:31;6.50;99.90
37460;DHT22;23318;50.966;5.284;2024-02-26T07:56:57;6.40;99.90
37460;DHT22;23318;50.966;5.284;2024-02-26T07:59:23;6.50;99.90
37460;DHT22;23318;50.966;5.284;2024-02-26T08:01:52;6.40;99.90
37460;DHT22;23318;50.966;5.284;2024-02-26T08:04:18;6.40;99.90
37460;DHT22;23318;50.966;5.284;2024-02-26T08:06:44;6.40;99.90
37460;DHT22;23318;50.966;5.284;2024-02-26T08:09:09;6.30;99.90
37460;DHT22;23318;50.966;5.284;2024-02-26T08:11:35;6.40;99.90
37460;DHT22;23318;50.966;5.284;2024-02-26T08:14:01;6.50;99.90
37460;DHT22;23318;50.966;5.284;2024-02-26T08:16:27;6.50;99.90
37460;DHT22;23318;50.966;5.284;2024-02-26T08:18:53;6.40;99.90
37460;DHT22;23318;50.966;5.284;2024-02-26T08:21:18;6.40;99.90
37460;DHT22;23318;50.966;5.284;2024-02-26T08:23:44;6.40;99.90
37460;DHT22;23318;50.966;5.284;2024-02-26T08:26:09;6.40;99.90
37460;DHT22;23318;50.966;5.284;2024-02-26T08:28:37;6.40;99.90
37460;DHT22;23318;50.966;5.284;2024-02-26T08:31:03;6.50;99.90
37460;DHT22;23318;50.966;5.284;2024-02-26T08:33:29;6.40;99.90
37460;DHT22;23318;50.966;5.284;2024-02-26T08:35:56;6.40;99.90
37460;DHT22;23318;50.966;5.284;2024-02-26T08:38:22;6.40;99.90
37460;DHT22;23318;50.966;5.284;2024-02-26T08:40:48;6.40;99.90
37460;DHT22;23318;50.966;5.284;2024-02-26T08:43:14;6.40;99.90
37460;DHT22;23318;50.966;5.284;2024-02-26T08:45:40;6.40;99.90
37460;DHT22;23318;50.966;5.284;2024-02-26T08:48:06;6.50;99.90
37460;DHT22;23318;50.966;5.284;2024-02-26T08:50:32;6.50;99.90
37460;DHT22;23318;50.966;5.284;2024-02-26T08:52:57;6.50;99.90
37460;DHT22;23318;50.966;5.284;2024-02-26T08:55:23;6.40;99.90
37460;DHT22;23318;50.966;5.284;2024-02-26T08:57:49;6.40;99.90
37460;DHT22;23318;50.966;5.284;2024-02-26T09:00:15;6.40;99.90
37460;DHT22;23318;50.966;5.284;2024-02-26T09:02:47;6.40;99.90
37460;DHT22;23318;50.966;5.284;2024-02-26T09:05:12;6.40;99.90
37460;DHT22;23318;50.966;5.284;2024-02-26T09:07:38;6.30;99.90
37460;DHT22;23318;50.966;5.284;2024-02-26T09:10:05;6.40;99.90
37460;DHT22;23318;50.966;5.284;2024-02-26T09:12:31;6.50;99.90
37460;DHT22;23318;50.966;5.284;2024-02-26T09:14:57;6.60;99.90
37460;DHT22;23318;50.966;5.284;2024-02-26T09:17:23;6.60;99.90
37460;DHT22;23318;50.966;5.284;2024-02-26T09:19:48;6.60;99.90
37460;DHT22;23318;50.966;5.284;2024-02-26T09:22:14;6.60;99.90
37460;DHT22;23318;50.966;5.284;2024-02-26T09:24:39;6.60;99.90
37460;DHT22;23318;50.966;5.284;2024-02-26T09:27:05;6.50;99.90
37460;DHT22;23318;50.966;5.284;2024-02-26T09:29:31;6.60;99.90
37460;DHT22;23318;50.966;5.284;2024-02-26T09:31:56;6.60;99.90
37460;DHT22;23318;50.966;5.284;2024-02-26T09:34:22;6.60;99.90
37460;DHT22;23318;50.966;5.284;2024-02-26T09:36:48;6.60;99.90
37460;DHT22;23318;50.966;5.284;2024-02-26T09:39:13;6.60;99.90
37460;DHT22;23318;50.966;5.284;2024-02-26T09:41:40;6.50;99.90
37460;DHT22;23318;50.966;5.284;2024-02-26T09:44:06;6.50;99.90
37460;DHT22;23318;50.966;5.284;2024-02-26T09:46:33;6.60;99.90
37460;DHT22;23318;50.966;5.284;2024-02-26T09:48:59;6.70;99.90
37460;DHT22;23318;50.966;5.284;2024-02-26T09:51:24;6.70;99.90
37460;DHT22;23318;50.966;5.284;2024-02-26T09:53:52;6.70;99.90
37460;DHT22;23318;50.966;5.284;2024-02-26T09:56:18;6.60;99.90
37460;DHT22;23318;50.966;5.284;2024-02-26T09:58:44;6.70;99.90
37460;DHT22;23318;50.966;5.284;2024-02-26T10:01:17;6.70;99.90
37460;DHT22;23318;50.966;5.284;2024-02-26T10:03:44;6.70;99.90
37460;DHT22;23318;50.966;5.284;2024-02-26T10:06:13;6.70;99.90
37460;DHT22;23318;50.966;5.284;2024-02-26T10:08:39;6.60;99.90
37460;DHT22;23318;50.966;5.284;2024-02-26T10:11:06;6.60;99.90
37460;DHT22;23318;50.966;5.284;2024-02-26T10:13:35;6.60;99.90
37460;DHT22;23318;50.966;5.284;2024-02-26T10:16:01;6.70;99.90
37460;DHT22;23318;50.966;5.284;2024-02-26T10:18:48;6.70;99.90
37460;DHT22;23318;50.966;5.284;2024-02-26T10:21:15;6.60;99.90
37460;DHT22;23318;50.966;5.284;2024-02-26T10:23:43;6.70;99.90
37460;DHT22;23318;50.966;5.284;2024-02-26T10:26:11;6.80;99.90
37460;DHT22;23318;50.966;5.284;2024-02-26T10:28:38;6.80;99.90
37460;DHT22;23318;50.966;5.284;2024-02-26T10:31:04;6.80;99.90
37460;DHT22;23318;50.966;5.284;2024-02-26T10:33:32;6.90;99.90
37460;DHT22;23318;50.966;5.284;2024-02-26T10:35:58;6.90;99.90
37460;DHT22;23318;50.966;5.284;2024-02-26T10:38:24;6.90;99.90
37460;DHT22;23318;50.966;5.284;2024-02-26T10:40:50;6.80;99.90
37460;DHT22;23318;50.966;5.284;2024-02-26T10:43:15;6.70;99.90
37460;DHT22;23318;50.966;5.284;2024-02-26T10:45:43;6.80;99.90
37460;DHT22;23318;50.966;5.284;2024-02-26T10:48:14;6.80;99.90
37460;DHT22;23318;50.966;5.284;2024-02-26T10:50:41;6.80;99.90
37460;DHT22;23318;50.966;5.284;2024-02-26T10:53:13;6.80;99.90
37460;DHT22;23318;50.966;5.284;2024-02-26T10:55:42;7.00;99.90
37460;DHT22;23318;50.966;5.284;2024-02-26T10:58:09;6.90;99.90
37460;DHT22;23318;50.966;5.284;2024-02-26T11:00:36;6.80;99.90
37460;DHT22;23318;50.966;5.284;2024-02-26T11:03:03;6.80;99.90
37460;DHT22;23318;50.966;5.284;2024-02-26T11:05:31;6.80;99.90
37460;DHT22;23318;50.966;5.284;2024-02-26T11:08:00;6.80;99.90
37460;DHT22;23318;50.966;5.284;2024-02-26T11:10:27;6.80;99.90
37460;DHT22;23318;50.966;5.284;2024-02-26T11:12:56;6.70;99.90
37460;DHT22;23318;50.966;5.284;2024-02-26T11:15:25;6.60;99.90
37460;DHT22;23318;50.966;5.284;2024-02-26T11:17:52;6.70;99.90
37460;DHT22;23318;50.966;5.284;2024-02-26T11:20:19;6.70;99.90
37460;DHT22;23318;50.966;5.284;2024-02-26T11:22:45;6.60;99.90
37460;DHT22;23318;50.966;5.284;2024-02-26T11:25:11;6.60;99.90
37460;DHT22;23318;50.966;5.284;2024-02-26T11:27:44;6.60;99.90
37460;DHT22;23318;50.966;5.284;2024-02-26T11:30:13;6.50;99.90
37460;DHT22;23318;50.966;5.284;2024-02-26T11:32:44;6.50;99.90
37460;DHT22;23318;50.966;5.284;2024-02-26T11:35:10;6.50;99.90
37460;DHT22;23318;50.966;5.284;2024-02-26T11:37:39;6.60;99.90
37460;DHT22;23318;50.966;5.284;2024-02-26T11:40:11;6.60;99.90
37460;DHT22;23318;50.966;5.284;2024-02-26T11:42:43;6.70;99.90
37460;DHT22;23318;50.966;5.284;2024-02-26T11:48:14;6.60;99.90
37460;DHT22;23318;50.966;5.284;2024-02-26T11:50:42;6.60;99.90
37460;DHT22;23318;50.966;5.284;2024-02-26T11:53:28;6.70;99.90
37460;DHT22;23318;50.966;5.284;2024-02-26T11:58:45;6.60;99.90
37460;DHT22;23318;50.966;5.284;2024-02-26T12:01:39;6.70;99.90
37460;DHT22;23318;50.966;5.284;2024-02-26T12:06:57;6.70;99.90
37460;DHT22;23318;50.966;5.284;2024-02-26T12:09:38;6.80;99.90
37460;DHT22;23318;50.966;5.284;2024-02-26T12:12:12;6.90;99.90
37460;DHT22;23318;50.966;5.284;2024-02-26T12:14:40;6.90;99.90
37460;DHT22;23318;50.966;5.284;2024-02-26T12:17:07;6.90;99.90
37460;DHT22;23318;50.966;5.284;2024-02-26T12:19:44;7.10;99.90
37460;DHT22;23318;50.966;5.284;2024-02-26T12:22:13;7.00;99.90
37460;DHT22;23318;50.966;5.284;2024-02-26T12:24:38;7.00;99.90
37460;DHT22;23318;50.966;5.284;2024-02-26T12:27:04;7.00;99.90
37460;DHT22;23318;50.966;5.284;2024-02-26T12:29:30;7.00;99.90
37460;DHT22;23318;50.966;5.284;2024-02-26T12:31:55;7.20;99.90
37460;DHT22;23318;50.966;5.284;2024-02-26T12:34:21;7.30;99.90
37460;DHT22;23318;50.966;5.284;2024-02-26T12:36:47;7.30;99.90
37460;DHT22;23318;50.966;5.284;2024-02-26T12:39:13;7.10;99.90
37460;DHT22;23318;50.966;5.284;2024-02-26T12:41:39;7.00;99.90
37460;DHT22;23318;50.966;5.284;2024-02-26T12:44:05;6.90;99.90
37460;DHT22;23318;50.966;5.284;2024-02-26T12:46:32;6.90;99.90
37460;DHT22;23318;50.966;5.284;2024-02-26T12:48:58;6.90;99.90
37460;DHT22;23318;50.966;5.284;2024-02-26T12:51:25;6.90;99.90
37460;DHT22;23318;50.966;5.284;2024-02-26T12:53:52;6.90;99.90
37460;DHT22;23318;50.966;5.284;2024-02-26T12:56:18;6.90;99.90
37460;DHT22;23318;50.966;5.284;2024-02-26T12:58:44;7.00;99.90
37460;DHT22;23318;50.966;5.284;2024-02-26T13:01:15;6.90;99.90
37460;DHT22;23318;50.966;5.284;2024-02-26T13:03:42;7.00;99.90
37460;DHT22;23318;50.966;5.284;2024-02-26T13:06:09;7.00;99.90
37460;DHT22;23318;50.966;5.284;2024-02-26T13:08:34;7.00;99.90
37460;DHT22;23318;50.966;5.284;2024-02-26T13:11:00;7.10;99.90
37460;DHT22;23318;50.966;5.284;2024-02-26T13:13:26;7.20;99.90
37460;DHT22;23318;50.966;5.284;2024-02-26T13:16:05;7.20;99.90
37460;DHT22;23318;50.966;5.284;2024-02-26T13:18:33;7.20;99.90
37460;DHT22;23318;50.966;5.284;2024-02-26T13:21:29;7.00;99.90
37460;DHT22;23318;50.966;5.284;2024-02-26T13:23:54;7.00;99.90
37460;DHT22;23318;50.966;5.284;2024-02-26T13:26:22;7.00;99.90
37460;DHT22;23318;50.966;5.284;2024-02-26T13:29:02;7.10;99.90
37460;DHT22;23318;50.966;5.284;2024-02-26T13:31:29;7.30;99.90
37460;DHT22;23318;50.966;5.284;2024-02-26T13:33:54;7.20;99.90
37460;DHT22;23318;50.966;5.284;2024-02-26T13:36:22;7.30;99.90
37460;DHT22;23318;50.966;5.284;2024-02-26T13:38:55;7.30;99.90
37460;DHT22;23318;50.966;5.284;2024-02-26T13:41:21;7.30;99.90
37460;DHT22;23318;50.966;5.284;2024-02-26T13:43:47;7.40;99.90
37460;DHT22;23318;50.966;5.284;2024-02-26T13:46:14;7.40;99.90
37460;DHT22;23318;50.966;5.284;2024-02-26T13:48:41;7.50;99.90
37460;DHT22;23318;50.966;5.284;2024-02-26T13:51:07;7.40;99.90
37460;DHT22;23318;50.966;5.284;2024-02-26T13:53:32;7.60;99.90
37460;DHT22;23318;50.966;5.284;2024-02-26T13:55:58;7.50;99.90
37460;DHT22;23318;50.966;5.284;2024-02-26T13:58:27;7.30;99.90
37460;DHT22;23318;50.966;5.284;2024-02-26T14:00:56;7.40;99.90
37460;DHT22;23318;50.966;5.284;2024-02-26T14:03:22;7.50;99.90
37460;DHT22;23318;50.966;5.284;2024-02-26T14:05:48;7.40;99.90
37460;DHT22;23318;50.966;5.284;2024-02-26T14:08:14;7.50;99.90
37460;DHT22;23318;50.966;5.284;2024-02-26T14:10:40;7.40;99.90
37460;DHT22;23318;50.966;5.284;2024-02-26T14:13:05;7.60;99.90
37460;DHT22;23318;50.966;5.284;2024-02-26T14:15:31;7.80;99.90
37460;DHT22;23318;50.966;5.284;2024-02-26T14:17:58;7.60;99.90
37460;DHT22;23318;50.966;5.284;2024-02-26T14:20:24;7.70;99.90
37460;DHT22;23318;50.966;5.284;2024-02-26T14:22:50;7.70;99.90
37460;DHT22;23318;50.966;5.284;2024-02-26T14:25:22;7.60;99.90
37460;DHT22;23318;50.966;5.284;2024-02-26T14:27:48;7.40;99.90
37460;DHT22;23318;50.966;5.284;2024-02-26T14:30:14;7.50;99.90
37460;DHT22;23318;50.966;5.284;2024-02-26T14:32:40;7.50;99.90
37460;DHT22;23318;50.966;5.284;2024-02-26T14:35:07;7.50;99.90
37460;DHT22;23318;50.966;5.284;2024-02-26T14:37:34;7.50;99.90
37460;DHT22;23318;50.966;5.284;2024-02-26T14:40:01;7.50;99.90
37460;DHT22;23318;50.966;5.284;2024-02-26T14:42:28;7.50;99.90
37460;DHT22;23318;50.966;5.284;2024-02-26T14:44:54;7.50;99.90
37460;DHT22;23318;50.966;5.284;2024-02-26T14:47:19;7.50;99.90
37460;DHT22;23318;50.966;5.284;2024-02-26T14:49:45;7.50;99.90
37460;DHT22;23318;50.966;5.284;2024-02-26T14:52:16;7.60;99.90
37460;DHT22;23318;50.966;5.284;2024-02-26T14:54:42;7.50;99.90
37460;DHT22;23318;50.966;5.284;2024-02-26T14:57:08;7.40;99.90
37460;DHT22;23318;50.966;5.284;2024-02-26T14:59:34;7.50;99.90
37460;DHT22;23318;50.966;5.284;2024-02-26T15:02:02;7.50;99.90
37460;DHT22;23318;50.966;5.284;2024-02-26T15:04:27;7.40;99.90
37460;DHT22;23318;50.966;5.284;2024-02-26T15:06:53;7.50;99.90
37460;DHT22;23318;50.966;5.284;2024-02-26T15:09:19;7.40;99.90
37460;DHT22;23318;50.966;5.284;2024-02-26T15:11:44;7.40;99.90
37460;DHT22;23318;50.966;5.284;2024-02-26T15:14:10;7.50;99.90
37460;DHT22;23318;50.966;5.284;2024-02-26T15:16:37;7.50;99.90
37460;DHT22;23318;50.966;5.284;2024-02-26T15:19:03;7.70;99.90
37460;DHT22;23318;50.966;5.284;2024-02-26T15:21:29;7.70;99.90
37460;DHT22;23318;50.966;5.284;2024-02-26T15:23:55;7.70;99.90
37460;DHT22;23318;50.966;5.284;2024-02-26T15:26:21;7.60;99.90
37460;DHT22;23318;50.966;5.284;2024-02-26T15:28:47;7.50;99.90
37460;DHT22;23318;50.966;5.284;2024-02-26T15:31:16;7.40;99.90
37460;DHT22;23318;50.966;5.284;2024-02-26T15:33:42;7.40;99.90
37460;DHT22;23318;50.966;5.284;2024-02-26T15:36:08;7.50;99.90
37460;DHT22;23318;50.966;5.284;2024-02-26T15:38:37;7.50;99.90
37460;DHT22;23318;50.966;5.284;2024-02-26T15:41:11;7.40;99.90
37460;DHT22;23318;50.966;5.284;2024-02-26T15:43:38;7.50;99.90
37460;DHT22;23318;50.966;5.284;2024-02-26T15:46:03;7.50;99.90
37460;DHT22;23318;50.966;5.284;2024-02-26T15:48:30;7.30;99.90
37460;DHT22;23318;50.966;5.284;2024-02-26T15:50:56;7.30;99.90